Time;durP1;ratioP1;P1;durP2;ratioP2;P2;SDS_P1;SDS_P2;PMS_P1;PMS_P2;Temp;Humidity;BMP_temperature;BMP_pressure;BME280_temperature;BME280_humidity;BME280_pressure;Samples;Min_cycle;Max_cycle;Signal;HPM_P1;HPM_P2
2022/05/15 00:02:11;;;;;;;7.50;5.30;;;19.60;99.90;;;;;;5048919;28;20583;-62
2022/05/15 00:04:39;;;;;;;7.83;5.90;;;19.70;99.90;;;;;;5049080;28;20481;-63
2022/05/15 00:07:08;;;;;;;7.80;6.53;;;19.70;99.90;;;;;;5049906;28;20561;-62
2022/05/15 00:09:35;;;;;;;11.17;8.07;;;19.60;99.90;;;;;;5052798;28;20442;-62
2022/05/15 00:12:04;;;;;;;8.80;7.33;;;19.60;99.90;;;;;;5052550;28;20470;-62
2022/05/15 00:14:31;;;;;;;11.50;6.73;;;19.50;99.90;;;;;;5052605;28;20540;-64
2022/05/15 00:16:58;;;;;;;9.37;7.70;;;19.30;99.90;;;;;;5052606;28;20456;-63
2022/05/15 00:19:26;;;;;;;8.57;7.17;;;19.30;99.90;;;;;;5052601;28;20481;-63
2022/05/15 00:21:53;;;;;;;9.40;7.70;;;19.40;99.90;;;;;;5052643;28;20473;-62
2022/05/15 00:24:22;;;;;;;9.50;6.80;;;19.50;99.90;;;;;;5052683;28;20479;-65
2022/05/15 00:26:49;;;;;;;8.70;6.43;;;19.50;99.90;;;;;;5052682;28;20473;-62
2022/05/15 00:29:16;;;;;;;11.50;7.20;;;19.60;99.90;;;;;;5052327;28;20446;-63
2022/05/15 00:31:43;;;;;;;11.50;8.43;;;19.40;99.90;;;;;;5052232;28;20472;-62
2022/05/15 00:34:10;;;;;;;13.63;8.70;;;19.20;99.90;;;;;;5052293;28;20465;-61
2022/05/15 00:36:37;;;;;;;7.33;6.53;;;19.20;99.90;;;;;;5052265;28;20960;-63
2022/05/15 00:39:05;;;;;;;9.70;7.10;;;19.20;99.90;;;;;;5052414;28;20504;-61
2022/05/15 00:41:34;;;;;;;9.87;8.00;;;19.20;99.90;;;;;;5051734;28;20529;-63
2022/05/15 00:44:01;;;;;;;9.60;8.13;;;19.20;99.90;;;;;;5052109;28;20462;-64
2022/05/15 00:46:31;;;;;;;8.27;6.93;;;19.10;99.90;;;;;;5052114;28;20856;-63
2022/05/15 00:49:04;;;;;;;9.00;7.87;;;19.20;99.90;;;;;;5052190;28;20441;-63
2022/05/15 00:51:37;;;;;;;9.40;7.97;;;19.30;99.90;;;;;;5052064;28;20466;-65
2022/05/15 00:54:10;;;;;;;11.33;8.90;;;19.40;99.90;;;;;;5052018;28;20454;-63
2022/05/15 00:56:41;;;;;;;11.93;10.10;;;19.30;99.90;;;;;;5051739;28;20454;-61
2022/05/15 00:59:13;;;;;;;13.10;11.53;;;19.30;99.90;;;;;;5051794;28;20497;-63
2022/05/15 01:01:40;;;;;;;12.97;11.60;;;19.20;99.90;;;;;;5051819;28;21001;-65
2022/05/15 01:04:07;;;;;;;12.90;11.23;;;19.00;99.90;;;;;;5051850;28;20779;-64
2022/05/15 01:06:36;;;;;;;12.20;10.67;;;19.00;99.90;;;;;;5051478;28;20450;-63
2022/05/15 01:09:05;;;;;;;11.90;10.70;;;19.00;99.90;;;;;;5051519;28;20545;-61
2022/05/15 01:11:34;;;;;;;12.90;11.47;;;18.90;99.90;;;;;;5051282;28;20535;-62
2022/05/15 01:14:07;;;;;;;13.33;11.80;;;18.70;99.90;;;;;;5051739;28;20537;-63
2022/05/15 01:16:35;;;;;;;12.80;11.50;;;18.80;99.90;;;;;;5051635;28;20458;-63
2022/05/15 01:19:03;;;;;;;14.57;12.00;;;18.80;99.90;;;;;;5050731;28;20576;-61
2022/05/15 01:21:35;;;;;;;14.00;11.27;;;18.80;99.90;;;;;;5051103;28;20470;-61
2022/05/15 01:24:03;;;;;;;11.87;10.67;;;18.70;99.90;;;;;;5051531;28;20557;-62
2022/05/15 01:26:31;;;;;;;15.13;11.23;;;18.70;99.90;;;;;;5051465;28;20450;-63
2022/05/15 01:28:59;;;;;;;12.63;11.33;;;18.80;99.90;;;;;;5051476;28;20453;-63
2022/05/15 01:31:27;;;;;;;12.90;10.60;;;18.70;99.90;;;;;;5051435;28;20484;-62
2022/05/15 01:33:54;;;;;;;13.90;10.77;;;18.80;99.90;;;;;;5051041;28;20499;-62
2022/05/15 01:36:24;;;;;;;13.00;11.70;;;18.70;99.90;;;;;;5051336;28;20446;-63
2022/05/15 01:38:54;;;;;;;15.93;11.30;;;18.60;99.90;;;;;;5051092;28;20486;-61
2022/05/15 01:41:21;;;;;;;11.27;10.07;;;18.60;99.90;;;;;;5050830;28;20520;-61
2022/05/15 01:43:52;;;;;;;15.13;10.80;;;18.60;99.90;;;;;;5051133;28;20450;-62
2022/05/15 01:46:22;;;;;;;13.73;9.77;;;18.60;99.90;;;;;;5050937;28;20461;-61
2022/05/15 01:48:49;;;;;;;14.90;11.60;;;18.50;99.90;;;;;;5051068;28;20927;-62
2022/05/15 01:51:16;;;;;;;10.80;9.70;;;18.50;99.90;;;;;;5050985;28;20520;-62
2022/05/15 01:53:44;;;;;;;11.63;10.20;;;18.30;99.90;;;;;;5050975;28;20838;-62
2022/05/15 01:56:13;;;;;;;10.50;9.40;;;18.30;99.90;;;;;;5051151;28;20476;-63
2022/05/15 01:58:40;;;;;;;11.43;9.03;;;18.30;99.90;;;;;;5051006;28;20925;-64
2022/05/15 02:01:09;;;;;;;11.83;9.23;;;18.40;99.90;;;;;;5050372;28;20557;-61
2022/05/15 02:03:36;;;;;;;10.07;8.40;;;18.40;99.90;;;;;;5050621;28;20446;-61
2022/05/15 02:06:04;;;;;;;8.37;7.40;;;18.30;99.90;;;;;;5050256;28;20954;-63
2022/05/15 02:08:32;;;;;;;10.33;6.93;;;18.20;99.90;;;;;;5050797;28;20449;-63
2022/05/15 02:11:00;;;;;;;10.00;8.33;;;18.30;99.90;;;;;;5050574;28;20556;-62
2022/05/15 02:13:29;;;;;;;8.90;7.37;;;18.40;99.90;;;;;;5050588;28;20808;-65
2022/05/15 02:15:56;;;;;;;11.20;7.97;;;18.40;99.90;;;;;;5050457;28;20503;-64
2022/05/15 02:18:23;;;;;;;9.90;7.20;;;18.40;99.90;;;;;;5050399;28;20808;-61
2022/05/15 02:20:50;;;;;;;10.77;9.07;;;18.40;99.90;;;;;;5050343;28;20978;-65
2022/05/15 02:23:18;;;;;;;10.77;8.00;;;18.50;99.90;;;;;;5050507;28;20491;-62
2022/05/15 02:25:45;;;;;;;10.70;8.00;;;18.50;99.90;;;;;;5050034;28;20454;-63
2022/05/15 02:28:12;;;;;;;8.77;7.47;;;18.50;99.90;;;;;;5050081;28;20454;-63
2022/05/15 02:30:41;;;;;;;10.23;8.10;;;18.30;99.90;;;;;;5049176;28;20783;-62
2022/05/15 02:33:08;;;;;;;8.23;6.80;;;18.40;99.90;;;;;;5050430;28;20462;-64
2022/05/15 02:35:35;;;;;;;17.17;8.00;;;18.30;99.90;;;;;;5050146;28;21028;-64
2022/05/15 02:38:02;;;;;;;9.77;8.33;;;18.40;99.90;;;;;;5049974;28;20541;-62
2022/05/15 02:40:29;;;;;;;11.80;8.70;;;18.20;99.90;;;;;;5049869;28;20449;-64
2022/05/15 02:42:56;;;;;;;9.53;8.13;;;18.20;99.90;;;;;;5049594;28;20875;-63
2022/05/15 02:45:24;;;;;;;10.07;7.73;;;18.20;99.90;;;;;;5049958;28;20446;-63
2022/05/15 02:47:52;;;;;;;10.67;9.13;;;18.10;99.90;;;;;;5049962;28;20492;-63
2022/05/15 02:53:05;;;;;;;10.60;9.30;;;18.20;99.90;;;;;;5049834;28;20975;-63
2022/05/15 02:55:33;;;;;;;10.30;8.13;;;18.20;99.90;;;;;;5049577;28;20461;-64
2022/05/15 02:58:00;;;;;;;12.07;8.77;;;18.20;99.90;;;;;;5049832;28;20543;-62
2022/05/15 03:00:29;;;;;;;14.40;8.70;;;18.20;99.90;;;;;;5049525;28;20575;-64
2022/05/15 03:02:57;;;;;;;10.80;9.33;;;18.20;99.90;;;;;;5049844;28;20481;-64
2022/05/15 03:05:24;;;;;;;10.90;8.40;;;18.20;99.90;;;;;;5049375;28;20458;-64
2022/05/15 03:07:52;;;;;;;9.43;8.43;;;18.10;99.90;;;;;;5049445;28;20449;-63
2022/05/15 03:10:22;;;;;;;12.27;9.33;;;17.90;99.90;;;;;;5049473;28;20450;-63
2022/05/15 03:12:50;;;;;;;10.77;9.30;;;18.00;99.90;;;;;;5049276;28;20557;-63
2022/05/15 03:15:19;;;;;;;11.57;9.57;;;17.90;99.90;;;;;;5049629;28;20492;-62
2022/05/15 03:17:46;;;;;;;18.53;11.07;;;17.90;99.90;;;;;;5049597;28;20473;-63
2022/05/15 03:20:17;;;;;;;9.60;8.53;;;17.90;99.90;;;;;;5049322;28;20484;-63
2022/05/15 03:22:44;;;;;;;11.53;10.30;;;17.80;99.90;;;;;;5049313;28;20806;-62
2022/05/15 03:25:11;;;;;;;11.73;9.63;;;17.80;99.90;;;;;;5049324;28;20453;-64
2022/05/15 03:27:39;;;;;;;12.83;10.17;;;17.80;99.90;;;;;;5049357;28;20791;-63
2022/05/15 03:30:07;;;;;;;13.77;10.40;;;17.80;99.90;;;;;;5049626;28;20450;-64
2022/05/15 03:32:35;;;;;;;16.67;10.87;;;17.90;99.90;;;;;;5048894;28;20477;-63
2022/05/15 03:35:03;;;;;;;13.40;10.37;;;17.90;99.90;;;;;;5049407;28;20476;-61
2022/05/15 03:37:32;;;;;;;12.60;11.13;;;17.90;99.90;;;;;;5049470;28;20844;-62
2022/05/15 03:39:59;;;;;;;13.50;10.13;;;17.90;99.90;;;;;;5049280;28;20494;-64
2022/05/15 03:42:27;;;;;;;12.27;10.27;;;17.90;99.90;;;;;;5051593;28;20874;-61
2022/05/15 03:44:54;;;;;;;13.60;11.03;;;17.80;99.90;;;;;;5053270;28;20768;-62
2022/05/15 03:47:22;;;;;;;13.53;10.63;;;17.80;99.90;;;;;;5052659;28;20856;-62
2022/05/15 03:49:50;;;;;;;12.83;10.30;;;17.80;99.90;;;;;;5053333;28;20445;-64
2022/05/15 03:52:17;;;;;;;13.53;12.13;;;17.90;99.90;;;;;;5053137;28;20501;-64
2022/05/15 03:54:47;;;;;;;15.73;12.17;;;17.80;99.90;;;;;;5053147;28;20461;-61
2022/05/15 03:57:15;;;;;;;12.90;11.60;;;17.90;99.90;;;;;;5053103;28;20549;-68
2022/05/15 03:59:43;;;;;;;14.23;12.83;;;17.90;99.90;;;;;;5052831;28;20489;-64
2022/05/15 04:02:11;;;;;;;15.53;11.27;;;17.90;99.90;;;;;;5052776;28;20517;-64
2022/05/15 04:04:38;;;;;;;13.67;9.90;;;17.90;99.90;;;;;;5052869;28;20450;-62
2022/05/15 04:07:06;;;;;;;12.70;10.73;;;18.00;99.90;;;;;;5052991;28;20454;-64
2022/05/15 04:09:34;;;;;;;13.43;11.57;;;18.10;99.90;;;;;;5053002;28;20453;-64
2022/05/15 04:12:03;;;;;;;12.20;10.50;;;18.00;99.90;;;;;;5052385;28;20469;-62
2022/05/15 04:14:31;;;;;;;12.33;11.13;;;18.20;99.90;;;;;;5052546;28;20469;-63
2022/05/15 04:16:58;;;;;;;14.33;11.23;;;18.30;99.90;;;;;;5052638;28;20535;-64
2022/05/15 04:19:25;;;;;;;11.77;10.53;;;18.30;99.90;;;;;;5052576;28;20493;-63
2022/05/15 04:21:52;;;;;;;15.67;11.20;;;18.40;99.90;;;;;;5052682;28;20774;-64
2022/05/15 04:24:20;;;;;;;13.20;12.00;;;18.40;99.90;;;;;;5052639;28;20557;-63
2022/05/15 04:26:47;;;;;;;11.47;10.10;;;18.30;99.90;;;;;;5052439;28;20458;-64
2022/05/15 04:29:16;;;;;;;18.70;10.93;;;18.40;99.90;;;;;;5052314;28;20451;-63
2022/05/15 04:31:43;;;;;;;15.00;9.90;;;18.50;99.90;;;;;;5052182;28;21005;-62
2022/05/15 04:34:10;;;;;;;13.27;10.27;;;18.70;99.90;;;;;;5052434;28;20799;-65
2022/05/15 04:36:38;;;;;;;13.57;11.60;;;18.70;99.90;;;;;;5052081;28;20449;-63
2022/05/15 04:39:06;;;;;;;12.40;11.10;;;18.80;99.90;;;;;;5052677;28;20485;-64
2022/05/15 04:41:34;;;;;;;14.40;11.80;;;18.80;99.90;;;;;;5051843;28;20493;-63
2022/05/15 04:44:01;;;;;;;15.87;10.70;;;19.00;99.90;;;;;;5052166;28;20454;-63
2022/05/15 04:46:30;;;;;;;12.43;11.10;;;19.10;99.90;;;;;;5052148;28;20843;-62
2022/05/15 04:48:57;;;;;;;13.77;10.40;;;19.20;99.90;;;;;;5052246;28;20525;-62
2022/05/15 04:51:24;;;;;;;14.93;9.93;;;19.30;99.90;;;;;;5051972;28;20522;-62
2022/05/15 04:53:51;;;;;;;11.87;10.63;;;19.40;99.90;;;;;;5051088;28;20454;-61
2022/05/15 04:56:18;;;;;;;13.23;11.27;;;19.50;99.90;;;;;;5051741;28;20453;-62
2022/05/15 04:58:46;;;;;;;14.73;10.93;;;19.50;99.90;;;;;;5051727;28;20453;-62
2022/05/15 05:01:13;;;;;;;11.60;9.60;;;19.60;99.90;;;;;;5051977;28;20470;-62
2022/05/15 05:03:42;;;;;;;11.67;9.20;;;19.70;99.90;;;;;;5051910;28;20918;-62
2022/05/15 05:06:09;;;;;;;12.00;9.47;;;19.80;99.90;;;;;;5051970;28;20450;-62
2022/05/15 05:08:36;;;;;;;11.60;9.53;;;19.90;99.90;;;;;;5051658;28;20458;-65
2022/05/15 05:11:03;;;;;;;11.43;9.80;;;20.00;99.90;;;;;;5051563;28;20476;-66
2022/05/15 05:13:30;;;;;;;15.90;9.77;;;20.10;99.90;;;;;;5051740;28;20453;-67
2022/05/15 05:15:57;;;;;;;10.90;8.73;;;20.20;99.90;;;;;;5051751;28;20454;-66
2022/05/15 05:18:24;;;;;;;10.83;7.77;;;20.20;99.90;;;;;;5051741;28;20454;-68
2022/05/15 05:20:53;;;;;;;12.00;8.80;;;20.30;99.90;;;;;;5051798;28;20498;-64
2022/05/15 05:23:20;;;;;;;11.67;9.27;;;20.40;99.90;;;;;;5051230;28;20842;-66
2022/05/15 05:25:47;;;;;;;11.40;8.13;;;20.40;99.90;;;;;;5051524;28;20813;-65
2022/05/15 05:28:15;;;;;;;11.97;10.10;;;20.50;99.90;;;;;;5051081;28;20453;-68
2022/05/15 05:30:43;;;;;;;15.50;8.70;;;20.30;99.90;;;;;;5051377;28;20450;-69
2022/05/15 05:33:10;;;;;;;11.80;9.87;;;20.40;99.90;;;;;;5051545;28;20502;-67
2022/05/15 05:35:38;;;;;;;11.47;8.83;;;20.60;99.90;;;;;;5051035;28;20450;-64
2022/05/15 05:38:08;;;;;;;12.40;8.67;;;20.70;99.90;;;;;;5051136;28;20454;-66
2022/05/15 05:40:35;;;;;;;13.10;9.60;;;20.80;99.90;;;;;;5051299;28;20482;-63
2022/05/15 05:43:02;;;;;;;15.00;9.07;;;20.80;99.90;;;;;;5051252;28;20489;-63
2022/05/15 05:45:29;;;;;;;12.60;7.90;;;20.70;99.90;;;;;;5051275;28;20446;-66
2022/05/15 05:47:57;;;;;;;9.03;7.97;;;20.80;99.90;;;;;;5051647;28;20454;-64
2022/05/15 05:50:26;;;;;;;11.30;8.33;;;21.00;99.90;;;;;;5051070;28;20495;-66
2022/05/15 05:52:54;;;;;;;9.53;7.70;;;21.10;99.90;;;;;;5051136;28;20449;-63
2022/05/15 05:55:23;;;;;;;14.23;8.90;;;21.10;99.90;;;;;;5050930;28;20449;-65
2022/05/15 05:57:51;;;;;;;10.80;7.50;;;21.10;99.90;;;;;;5051104;28;20458;-63
2022/05/15 06:00:21;;;;;;;8.60;6.77;;;21.30;99.90;;;;;;5051010;28;20578;-67
2022/05/15 06:02:48;;;;;;;14.90;8.10;;;21.30;99.90;;;;;;5050658;28;20897;-63
2022/05/15 06:05:14;;;;;;;8.87;6.50;;;21.40;99.90;;;;;;5050658;28;20493;-64
2022/05/15 06:07:42;;;;;;;11.47;6.67;;;21.50;99.90;;;;;;5050624;28;20478;-63
2022/05/15 06:10:12;;;;;;;11.10;6.67;;;21.50;99.90;;;;;;5050799;28;20450;-64
2022/05/15 06:12:41;;;;;;;14.43;7.20;;;21.70;99.90;;;;;;5050580;28;20474;-68
2022/05/15 06:15:10;;;;;;;9.13;5.90;;;21.70;99.90;;;;;;5050504;28;20453;-65
2022/05/15 06:17:37;;;;;;;9.70;6.20;;;21.80;99.90;;;;;;5050517;28;20462;-62
2022/05/15 06:20:08;;;;;;;10.23;6.00;;;21.80;99.90;;;;;;5050268;28;20524;-64
2022/05/15 06:22:35;;;;;;;11.67;6.80;;;21.90;99.90;;;;;;5050306;28;20473;-64
2022/05/15 06:25:02;;;;;;;9.87;6.27;;;22.10;99.90;;;;;;5050398;28;20930;-65
2022/05/15 06:27:29;;;;;;;8.90;6.37;;;22.10;99.90;;;;;;5050422;28;20446;-63
2022/05/15 06:29:58;;;;;;;9.90;6.50;;;21.90;99.90;;;;;;5050041;28;20454;-67
2022/05/15 06:32:26;;;;;;;12.93;6.40;;;21.90;99.90;;;;;;5050011;28;20474;-65
2022/05/15 06:34:54;;;;;;;10.63;6.30;;;21.90;99.90;;;;;;5050055;28;20449;-63
2022/05/15 06:37:21;;;;;;;8.53;6.10;;;22.20;99.90;;;;;;5050146;28;20627;-67
2022/05/15 06:39:48;;;;;;;9.30;7.17;;;22.40;99.90;;;;;;5050301;28;20925;-66
2022/05/15 06:42:15;;;;;;;10.97;7.70;;;22.40;99.90;;;;;;5049609;28;20971;-68
2022/05/15 06:44:42;;;;;;;8.70;5.80;;;22.40;99.90;;;;;;5050086;28;20449;-70
2022/05/15 06:47:11;;;;;;;9.47;6.33;;;22.30;99.90;;;;;;5049710;28;20439;-71
2022/05/15 06:49:38;;;;;;;8.67;5.80;;;22.20;99.90;;;;;;5049852;28;20461;-72
2022/05/15 06:52:06;;;;;;;9.47;6.03;;;22.10;99.90;;;;;;5049943;28;20476;-69
2022/05/15 06:54:33;;;;;;;7.60;5.47;;;22.00;99.90;;;;;;5049959;28;20461;-70
2022/05/15 06:59:44;;;;;;;8.87;6.07;;;22.30;99.90;;;;;;5049398;28;20839;-69
2022/05/15 07:02:13;;;;;;;8.83;6.40;;;22.40;99.90;;;;;;5049360;28;20470;-69
2022/05/15 07:04:41;;;;;;;9.83;6.00;;;22.40;99.90;;;;;;5050115;28;20458;-69
2022/05/15 07:07:08;;;;;;;12.00;5.27;;;22.60;99.90;;;;;;5049772;28;20458;-69
2022/05/15 07:09:36;;;;;;;11.40;5.93;;;22.90;99.90;;;;;;5049384;28;20540;-67
2022/05/15 07:12:04;;;;;;;9.43;5.10;;;23.10;99.90;;;;;;5049481;28;20548;-71
2022/05/15 07:14:32;;;;;;;7.20;5.43;;;23.30;99.90;;;;;;5049857;28;20485;-71
2022/05/15 07:16:59;;;;;;;9.63;4.50;;;23.40;99.90;;;;;;5048824;28;20449;-71
2022/05/15 07:19:27;;;;;;;10.87;4.60;;;23.20;99.90;;;;;;5049695;28;20485;-68
2022/05/15 07:21:54;;;;;;;7.33;4.33;;;23.10;99.90;;;;;;5049327;28;20517;-69
2022/05/15 07:24:22;;;;;;;7.67;4.87;;;23.00;99.90;;;;;;5049301;28;20452;-68
2022/05/15 07:26:49;;;;;;;6.57;4.40;;;23.00;99.90;;;;;;5049377;28;20549;-68
2022/05/15 07:29:17;;;;;;;9.60;4.67;;;22.90;99.90;;;;;;5049063;28;20454;-67
2022/05/15 07:31:44;;;;;;;6.23;4.23;;;22.80;99.90;;;;;;5049238;28;20526;-68
2022/05/15 07:34:12;;;;;;;8.53;3.90;;;22.70;99.90;;;;;;5049418;28;20450;-66
2022/05/15 07:36:40;;;;;;;6.90;3.97;;;22.80;99.90;;;;;;5048995;28;20890;-68
2022/05/15 07:39:07;;;;;;;7.17;3.60;;;22.90;99.90;;;;;;5049233;28;20457;-67
2022/05/15 07:41:34;;;;;;;6.50;4.10;;;22.90;99.90;;;;;;5048767;28;20497;-70
2022/05/15 07:44:02;;;;;;;6.07;3.47;;;22.90;99.90;;;;;;5049484;28;20465;-69
2022/05/15 07:46:29;;;;;;;10.93;4.27;;;22.90;99.90;;;;;;5048990;28;20572;-68
2022/05/15 07:48:57;;;;;;;8.87;4.30;;;23.10;99.90;;;;;;5049019;28;20552;-70
2022/05/15 07:51:24;;;;;;;7.93;4.07;;;23.20;99.90;;;;;;5049303;28;20462;-68
2022/05/15 07:53:53;;;;;;;6.40;4.10;;;23.30;99.90;;;;;;5049329;28;20450;-70
2022/05/15 07:56:20;;;;;;;7.83;3.33;;;23.20;99.90;;;;;;5049302;28;20477;-67
2022/05/15 07:58:47;;;;;;;7.40;3.30;;;23.10;99.90;;;;;;5049459;28;20458;-65
2022/05/15 08:01:14;;;;;;;9.03;3.37;;;23.00;97.90;;;;;;5049030;28;20493;-67
2022/05/15 08:03:43;;;;;;;9.63;3.50;;;23.10;97.60;;;;;;5049102;28;20512;-67
2022/05/15 08:08:57;;;;;;;4.90;3.07;;;23.10;96.80;;;;;;5049165;28;20432;-64
2022/05/15 08:11:28;;;;;;;6.53;3.60;;;23.30;97.30;;;;;;5048921;28;20819;-63
2022/05/15 08:13:55;;;;;;;5.67;3.70;;;23.20;96.10;;;;;;5049174;28;20930;-68
2022/05/15 08:16:23;;;;;;;5.17;3.03;;;23.00;96.60;;;;;;5048935;28;20461;-62
2022/05/15 08:24:21;;;;;;;7.43;3.00;;;22.80;95.40;;;;;;5048593;28;20429;-64
2022/05/15 08:26:48;;;;;;;5.83;3.20;;;22.80;93.80;;;;;;5048848;28;20472;-63
2022/05/15 08:29:15;;;;;;;5.30;3.00;;;22.80;93.20;;;;;;5051218;28;20452;-63
2022/05/15 08:31:43;;;;;;;8.67;3.60;;;23.00;94.50;;;;;;5052378;28;20840;-64
2022/05/15 08:34:10;;;;;;;9.77;3.70;;;23.40;93.80;;;;;;5052375;28;20453;-62
2022/05/15 08:36:39;;;;;;;5.13;2.60;;;23.50;92.30;;;;;;5052368;28;20929;-64
2022/05/15 08:39:06;;;;;;;7.03;3.07;;;23.60;92.00;;;;;;5052193;28;20970;-63
2022/05/15 08:41:44;;;;;;;9.20;2.90;;;23.60;90.10;;;;;;5051764;28;20493;-66
2022/05/15 08:44:12;;;;;;;6.00;2.83;;;23.60;90.50;;;;;;5052336;28;20461;-65
2022/05/15 08:46:52;;;;;;;6.23;3.07;;;23.60;88.50;;;;;;5052261;28;20454;-65
2022/05/15 08:49:23;;;;;;;5.27;2.60;;;23.50;89.30;;;;;;5052165;28;20462;-65
2022/05/15 08:51:57;;;;;;;6.37;2.80;;;23.40;88.30;;;;;;5051678;28;21012;-67
2022/05/15 08:54:26;;;;;;;8.03;2.60;;;23.50;89.80;;;;;;5052755;28;20852;-63
2022/05/15 08:56:55;;;;;;;6.63;3.03;;;23.70;89.30;;;;;;5052092;28;20906;-66
2022/05/15 08:59:27;;;;;;;5.00;2.70;;;24.00;90.10;;;;;;5052087;28;20461;-65
2022/05/15 09:01:57;;;;;;;6.53;2.90;;;24.30;89.60;;;;;;5051508;28;20498;-64
2022/05/15 09:04:26;;;;;;;6.00;3.10;;;24.50;89.50;;;;;;5051838;28;20457;-64
2022/05/15 09:07:05;;;;;;;10.20;3.30;;;24.60;86.60;;;;;;5051857;28;20449;-65
2022/05/15 09:09:42;;;;;;;7.57;2.50;;;24.90;86.80;;;;;;5051675;28;20458;-65
2022/05/15 09:12:17;;;;;;;5.00;3.60;;;25.00;81.20;;;;;;5051871;28;20907;-62
2022/05/15 09:15:00;;;;;;;5.40;2.90;;;25.10;79.10;;;;;;5051516;28;20461;-67
2022/05/15 09:17:33;;;;;;;5.63;2.90;;;24.90;79.70;;;;;;5051611;28;20477;-64
2022/05/15 09:20:05;;;;;;;7.20;2.50;;;25.10;79.30;;;;;;5051671;28;20506;-64
2022/05/15 09:22:37;;;;;;;4.47;2.13;;;25.30;74.60;;;;;;5051626;28;20470;-67
2022/05/15 09:25:13;;;;;;;6.00;2.20;;;25.50;72.40;;;;;;5051674;28;20449;-64
2022/05/15 09:27:58;;;;;;;5.33;1.93;;;25.90;70.80;;;;;;5051453;28;20460;-62
2022/05/15 09:30:32;;;;;;;5.17;2.23;;;26.20;64.60;;;;;;5051428;28;20955;-65
2022/05/15 09:32:59;;;;;;;4.40;2.20;;;26.20;62.50;;;;;;5051437;28;20453;-64
2022/05/15 09:35:32;;;;;;;5.00;2.33;;;26.30;62.10;;;;;;5051256;28;20854;-68
2022/05/15 09:43:32;;;;;;;7.60;2.70;;;26.50;63.90;;;;;;5050178;28;20505;-65
2022/05/15 09:46:10;;;;;;;5.60;2.10;;;26.40;62.20;;;;;;5050734;28;20450;-66
2022/05/15 09:48:42;;;;;;;6.73;2.20;;;26.30;60.70;;;;;;5050837;28;20450;-66
2022/05/15 09:51:12;;;;;;;5.07;2.60;;;26.60;60.70;;;;;;5050944;28;20556;-65
2022/05/15 09:53:43;;;;;;;6.10;2.20;;;26.50;60.20;;;;;;5050773;28;20493;-68
2022/05/15 09:56:13;;;;;;;5.53;2.27;;;26.20;57.60;;;;;;5050703;28;20454;-65
2022/05/15 09:58:46;;;;;;;5.63;2.50;;;26.20;59.90;;;;;;5050781;28;20448;-65
2022/05/15 10:01:21;;;;;;;4.43;2.37;;;26.10;59.50;;;;;;5050770;28;20494;-66
2022/05/15 10:03:54;;;;;;;5.40;2.87;;;26.40;60.50;;;;;;5050849;28;20480;-65
2022/05/15 10:06:23;;;;;;;4.33;2.10;;;26.60;58.50;;;;;;5050806;28;20450;-66
2022/05/15 10:09:12;;;;;;;5.50;2.37;;;26.80;57.80;;;;;;5050300;28;20865;-65
2022/05/15 10:11:42;;;;;;;4.83;1.87;;;27.10;58.40;;;;;;5050678;28;20824;-69
2022/05/15 10:14:26;;;;;;;4.70;2.13;;;27.40;60.10;;;;;;5050582;28;20453;-65
2022/05/15 10:16:56;;;;;;;6.10;2.50;;;27.70;59.00;;;;;;5050545;28;20456;-65
2022/05/15 10:19:34;;;;;;;7.27;2.07;;;27.90;61.20;;;;;;5050354;28;20555;-64
2022/05/15 10:22:21;;;;;;;5.10;2.20;;;27.90;56.70;;;;;;5050048;28;20497;-69
2022/05/15 10:24:50;;;;;;;4.70;1.83;;;28.00;51.90;;;;;;5049904;28;20449;-63
2022/05/15 10:27:22;;;;;;;6.93;2.60;;;28.10;52.70;;;;;;5050121;28;20453;-63
2022/05/15 10:29:55;;;;;;;6.00;1.83;;;28.40;54.30;;;;;;5049843;28;20461;-65
2022/05/15 10:32:27;;;;;;;5.90;2.53;;;28.60;55.30;;;;;;5049648;28;20470;-67
2022/05/15 10:34:55;;;;;;;5.53;1.93;;;28.60;54.40;;;;;;5050107;28;20461;-67
2022/05/15 10:37:59;;;;;;;5.80;2.10;;;28.50;52.40;;;;;;5050180;28;20453;-70
2022/05/15 10:40:36;;;;;;;4.93;1.90;;;28.40;51.10;;;;;;5049740;28;21003;-63
2022/05/15 10:43:14;;;;;;;4.73;2.20;;;28.50;51.80;;;;;;5049583;28;20897;-63
2022/05/15 10:45:48;;;;;;;4.63;2.13;;;28.70;50.30;;;;;;5050021;28;20456;-64
2022/05/15 10:48:35;;;;;;;6.30;1.80;;;27.90;49.10;;;;;;5049956;28;20461;-65
2022/05/15 10:51:10;;;;;;;4.10;1.80;;;27.80;50.10;;;;;;5049040;28;20466;-64
2022/05/15 11:00:00;;;;;;;5.27;2.60;;;28.60;53.70;;;;;;5049871;28;20444;-62
2022/05/15 11:02:59;;;;;;;5.17;3.30;;;28.70;53.80;;;;;;5049097;28;20601;-64
2022/05/15 11:05:28;;;;;;;6.33;2.60;;;29.30;53.10;;;;;;5049656;28;20450;-65
2022/05/15 11:08:05;;;;;;;8.30;2.60;;;29.50;53.70;;;;;;5049680;28;20810;-64
2022/05/15 11:10:40;;;;;;;6.30;2.90;;;29.70;54.10;;;;;;5049547;28;20457;-62
2022/05/15 11:13:12;;;;;;;5.87;2.70;;;29.90;54.50;;;;;;5049713;28;20817;-61
2022/05/15 11:15:57;;;;;;;5.60;2.40;;;30.00;54.60;;;;;;5049331;28;20454;-63
2022/05/15 11:18:57;;;;;;;4.90;3.13;;;30.10;53.50;;;;;;5049349;28;20553;-65
2022/05/15 11:21:30;;;;;;;6.13;2.87;;;29.80;54.00;;;;;;5049640;28;20489;-62
2022/05/15 11:24:04;;;;;;;6.03;2.83;;;29.90;53.80;;;;;;5049440;28;20473;-64
2022/05/15 11:26:38;;;;;;;4.57;2.80;;;29.80;54.50;;;;;;5049592;28;20461;-64
2022/05/15 11:29:10;;;;;;;7.63;3.30;;;30.00;55.40;;;;;;5049645;28;20454;-64
2022/05/15 11:31:43;;;;;;;7.50;3.10;;;30.20;54.20;;;;;;5049031;28;20501;-63
2022/05/15 11:34:12;;;;;;;5.90;3.53;;;30.40;54.10;;;;;;5049682;28;20461;-63
2022/05/15 11:36:42;;;;;;;5.53;2.90;;;30.20;54.50;;;;;;5049319;28;20458;-64
2022/05/15 11:39:25;;;;;;;8.47;2.73;;;30.20;54.70;;;;;;5049461;28;20480;-63
2022/05/15 11:42:18;;;;;;;6.80;3.13;;;30.10;53.40;;;;;;5048847;28;20497;-63
2022/05/15 11:44:47;;;;;;;8.43;3.33;;;30.10;52.80;;;;;;5046373;28;20465;-62
2022/05/15 11:47:26;;;;;;;6.07;2.80;;;30.20;53.30;;;;;;5049100;28;20446;-64
2022/05/15 11:50:13;;;;;;;4.87;2.53;;;30.30;54.30;;;;;;5048818;28;20457;-65
2022/05/15 11:53:02;;;;;;;7.33;3.37;;;30.10;53.70;;;;;;5049116;28;20485;-64
2022/05/15 11:55:51;;;;;;;7.10;3.47;;;29.90;54.60;;;;;;5049052;28;20445;-63
2022/05/15 11:58:30;;;;;;;10.33;3.77;;;30.30;56.50;;;;;;5049079;28;20446;-63
2022/05/15 12:01:07;;;;;;;6.17;3.17;;;30.60;56.20;;;;;;5048959;28;20478;-64
2022/05/15 12:03:50;;;;;;;8.47;3.60;;;30.50;55.10;;;;;;5052353;28;20458;-63
2022/05/15 12:06:23;;;;;;;5.37;3.00;;;30.50;55.90;;;;;;5052722;28;20458;-64
2022/05/15 12:08:53;;;;;;;7.63;3.00;;;30.40;56.30;;;;;;5053154;28;20733;-61
2022/05/15 12:11:33;;;;;;;8.33;3.67;;;30.40;56.20;;;;;;5052996;28;20577;-63
2022/05/15 12:14:34;;;;;;;9.70;3.17;;;30.40;56.00;;;;;;5052480;28;20471;-63
2022/05/15 12:17:03;;;;;;;8.57;3.70;;;30.10;56.40;;;;;;5052808;28;20809;-63
2022/05/15 12:19:33;;;;;;;5.87;3.40;;;30.10;56.20;;;;;;5052732;28;20458;-61
2022/05/15 12:22:04;;;;;;;5.47;3.10;;;30.10;56.00;;;;;;5052623;28;20490;-62
2022/05/15 12:24:33;;;;;;;5.43;3.20;;;30.10;55.70;;;;;;5052622;28;20453;-63
2022/05/15 12:27:23;;;;;;;6.70;3.00;;;29.90;56.80;;;;;;5052607;28;20450;-63
2022/05/15 12:30:13;;;;;;;9.40;3.50;;;29.70;56.80;;;;;;5051928;28;20829;-63
2022/05/15 12:32:42;;;;;;;9.00;3.47;;;29.40;56.70;;;;;;5052323;28;20465;-62
2022/05/15 12:35:15;;;;;;;5.87;3.53;;;29.30;56.30;;;;;;5052340;28;20462;-61
2022/05/15 12:37:58;;;;;;;5.83;3.40;;;29.50;56.80;;;;;;5052273;28;20540;-61
2022/05/15 12:40:28;;;;;;;8.90;3.10;;;29.80;55.70;;;;;;5052363;28;20814;-62
2022/05/15 12:42:58;;;;;;;8.70;3.60;;;30.20;55.80;;;;;;5051710;28;20497;-64
2022/05/15 12:45:27;;;;;;;8.70;4.23;;;30.30;55.30;;;;;;5052137;28;20465;-63
2022/05/15 12:48:04;;;;;;;10.90;3.60;;;30.20;55.40;;;;;;5052169;28;20528;-64
2022/05/15 12:50:32;;;;;;;6.30;3.07;;;30.30;55.50;;;;;;5052118;28;20462;-63
2022/05/15 12:53:03;;;;;;;5.13;3.30;;;30.20;55.60;;;;;;5052180;28;20446;-64
2022/05/15 12:55:32;;;;;;;7.17;4.23;;;30.40;54.80;;;;;;5051972;28;20453;-62
2022/05/15 12:58:05;;;;;;;6.63;3.40;;;30.50;55.10;;;;;;5051954;28;20446;-63
2022/05/15 13:00:37;;;;;;;6.07;3.03;;;30.60;54.50;;;;;;5051808;28;20489;-62
2022/05/15 13:03:08;;;;;;;5.60;3.37;;;30.60;53.50;;;;;;5051683;28;20842;-63
2022/05/15 13:05:38;;;;;;;10.43;3.50;;;30.60;54.00;;;;;;5051463;28;20468;-72
2022/05/15 13:08:08;;;;;;;6.87;3.00;;;31.00;54.60;;;;;;5051526;28;20933;-70
2022/05/15 13:10:41;;;;;;;6.60;3.20;;;31.30;53.60;;;;;;5051651;28;20453;-63
2022/05/15 13:13:19;;;;;;;6.10;3.20;;;31.30;52.80;;;;;;5051456;28;20543;-64
2022/05/15 13:15:50;;;;;;;7.73;3.20;;;31.50;52.80;;;;;;5051671;28;20466;-65
2022/05/15 13:18:18;;;;;;;5.10;3.13;;;31.80;53.10;;;;;;5051800;28;20454;-65
2022/05/15 13:20:50;;;;;;;5.43;3.43;;;32.20;53.30;;;;;;5051408;28;20481;-64
2022/05/15 13:23:17;;;;;;;5.10;3.20;;;32.60;52.30;;;;;;5051429;28;20492;-65